sensor_id;sensor_type;location;lat;lon;timestamp;P1;durP1;ratioP1;P2;durP2;ratioP2
12707;SDS011;6418;50.824;4.718;2022-08-25T00:01:43;11.18;;;5.60;;
12707;SDS011;6418;50.824;4.718;2022-08-25T00:04:12;10.98;;;6.03;;
12707;SDS011;6418;50.824;4.718;2022-08-25T00:06:40;9.80;;;5.63;;
12707;SDS011;6418;50.824;4.718;2022-08-25T00:09:09;11.63;;;5.70;;
12707;SDS011;6418;50.824;4.718;2022-08-25T00:11:38;11.15;;;6.00;;
12707;SDS011;6418;50.824;4.718;2022-08-25T00:14:07;13.15;;;6.20;;
12707;SDS011;6418;50.824;4.718;2022-08-25T00:16:36;9.60;;;5.88;;
12707;SDS011;6418;50.824;4.718;2022-08-25T00:19:05;11.20;;;5.80;;
12707;SDS011;6418;50.824;4.718;2022-08-25T00:21:34;11.50;;;5.90;;
12707;SDS011;6418;50.824;4.718;2022-08-25T00:24:02;10.10;;;6.13;;
12707;SDS011;6418;50.824;4.718;2022-08-25T00:26:29;12.27;;;5.97;;
12707;SDS011;6418;50.824;4.718;2022-08-25T00:28:57;9.93;;;5.97;;
12707;SDS011;6418;50.824;4.718;2022-08-25T00:31:24;9.10;;;6.00;;
12707;SDS011;6418;50.824;4.718;2022-08-25T00:33:51;10.07;;;6.00;;
12707;SDS011;6418;50.824;4.718;2022-08-25T00:36:20;10.27;;;5.73;;
12707;SDS011;6418;50.824;4.718;2022-08-25T00:38:47;12.13;;;6.33;;
12707;SDS011;6418;50.824;4.718;2022-08-25T00:41:16;10.93;;;6.47;;
12707;SDS011;6418;50.824;4.718;2022-08-25T00:43:47;12.82;;;5.90;;
12707;SDS011;6418;50.824;4.718;2022-08-25T00:46:17;11.18;;;6.38;;
12707;SDS011;6418;50.824;4.718;2022-08-25T00:48:48;10.97;;;6.13;;
12707;SDS011;6418;50.824;4.718;2022-08-25T00:51:20;13.23;;;6.30;;
12707;SDS011;6418;50.824;4.718;2022-08-25T00:53:54;10.70;;;5.80;;
12707;SDS011;6418;50.824;4.718;2022-08-25T00:56:21;11.70;;;6.60;;
12707;SDS011;6418;50.824;4.718;2022-08-25T00:58:49;12.03;;;6.43;;
12707;SDS011;6418;50.824;4.718;2022-08-25T01:01:16;10.80;;;6.20;;
12707;SDS011;6418;50.824;4.718;2022-08-25T01:03:44;12.80;;;6.80;;
12707;SDS011;6418;50.824;4.718;2022-08-25T01:06:11;12.47;;;6.53;;
12707;SDS011;6418;50.824;4.718;2022-08-25T01:08:40;10.20;;;6.57;;
12707;SDS011;6418;50.824;4.718;2022-08-25T01:11:08;11.43;;;6.53;;
12707;SDS011;6418;50.824;4.718;2022-08-25T01:13:36;11.20;;;6.70;;
12707;SDS011;6418;50.824;4.718;2022-08-25T01:16:08;10.37;;;6.43;;
12707;SDS011;6418;50.824;4.718;2022-08-25T01:18:41;11.13;;;6.60;;
12707;SDS011;6418;50.824;4.718;2022-08-25T01:21:12;12.87;;;6.60;;
12707;SDS011;6418;50.824;4.718;2022-08-25T01:23:40;11.17;;;6.70;;
12707;SDS011;6418;50.824;4.718;2022-08-25T01:26:08;12.40;;;6.80;;
12707;SDS011;6418;50.824;4.718;2022-08-25T01:28:37;12.30;;;6.90;;
12707;SDS011;6418;50.824;4.718;2022-08-25T01:31:25;12.23;;;6.83;;
12707;SDS011;6418;50.824;4.718;2022-08-25T01:33:53;12.13;;;6.43;;
12707;SDS011;6418;50.824;4.718;2022-08-25T01:36:22;14.77;;;7.10;;
12707;SDS011;6418;50.824;4.718;2022-08-25T01:38:51;12.83;;;7.20;;
12707;SDS011;6418;50.824;4.718;2022-08-25T01:41:20;12.17;;;7.33;;
12707;SDS011;6418;50.824;4.718;2022-08-25T01:43:52;11.03;;;6.77;;
12707;SDS011;6418;50.824;4.718;2022-08-25T01:46:19;14.17;;;7.07;;
12707;SDS011;6418;50.824;4.718;2022-08-25T01:48:46;11.73;;;7.00;;
12707;SDS011;6418;50.824;4.718;2022-08-25T01:51:13;11.37;;;7.03;;
12707;SDS011;6418;50.824;4.718;2022-08-25T01:53:42;13.33;;;7.00;;
12707;SDS011;6418;50.824;4.718;2022-08-25T01:56:10;12.50;;;6.67;;
12707;SDS011;6418;50.824;4.718;2022-08-25T01:58:39;11.80;;;6.50;;
12707;SDS011;6418;50.824;4.718;2022-08-25T02:01:11;12.63;;;7.03;;
12707;SDS011;6418;50.824;4.718;2022-08-25T02:03:42;14.57;;;7.27;;
12707;SDS011;6418;50.824;4.718;2022-08-25T02:06:10;12.63;;;7.40;;
12707;SDS011;6418;50.824;4.718;2022-08-25T02:08:38;11.90;;;6.97;;
12707;SDS011;6418;50.824;4.718;2022-08-25T02:11:08;13.17;;;7.50;;
12707;SDS011;6418;50.824;4.718;2022-08-25T02:13:37;13.63;;;7.47;;
12707;SDS011;6418;50.824;4.718;2022-08-25T02:16:04;14.33;;;6.83;;
12707;SDS011;6418;50.824;4.718;2022-08-25T02:18:32;12.67;;;7.20;;
12707;SDS011;6418;50.824;4.718;2022-08-25T02:20:59;14.47;;;7.10;;
12707;SDS011;6418;50.824;4.718;2022-08-25T02:23:26;12.43;;;7.10;;
12707;SDS011;6418;50.824;4.718;2022-08-25T02:25:53;12.10;;;7.13;;
12707;SDS011;6418;50.824;4.718;2022-08-25T02:28:22;13.20;;;7.03;;
12707;SDS011;6418;50.824;4.718;2022-08-25T02:30:50;11.57;;;7.60;;
12707;SDS011;6418;50.824;4.718;2022-08-25T02:33:17;13.80;;;7.00;;
12707;SDS011;6418;50.824;4.718;2022-08-25T02:35:44;12.57;;;7.47;;
12707;SDS011;6418;50.824;4.718;2022-08-25T02:38:11;13.80;;;7.37;;
12707;SDS011;6418;50.824;4.718;2022-08-25T02:40:38;13.13;;;7.70;;
12707;SDS011;6418;50.824;4.718;2022-08-25T02:43:05;14.33;;;7.70;;
12707;SDS011;6418;50.824;4.718;2022-08-25T02:45:34;13.63;;;7.67;;
12707;SDS011;6418;50.824;4.718;2022-08-25T02:48:02;14.20;;;7.60;;
12707;SDS011;6418;50.824;4.718;2022-08-25T02:50:29;12.97;;;6.83;;
12707;SDS011;6418;50.824;4.718;2022-08-25T02:52:56;12.27;;;7.27;;
12707;SDS011;6418;50.824;4.718;2022-08-25T02:55:23;15.00;;;7.40;;
12707;SDS011;6418;50.824;4.718;2022-08-25T02:57:50;13.23;;;7.53;;
12707;SDS011;6418;50.824;4.718;2022-08-25T03:00:17;14.03;;;7.67;;
12707;SDS011;6418;50.824;4.718;2022-08-25T03:02:46;12.13;;;7.47;;
12707;SDS011;6418;50.824;4.718;2022-08-25T03:05:13;11.47;;;7.20;;
12707;SDS011;6418;50.824;4.718;2022-08-25T03:07:41;13.87;;;8.30;;
12707;SDS011;6418;50.824;4.718;2022-08-25T03:10:09;14.40;;;8.57;;
12707;SDS011;6418;50.824;4.718;2022-08-25T03:12:38;13.93;;;8.63;;
12707;SDS011;6418;50.824;4.718;2022-08-25T03:15:05;20.07;;;8.87;;
12707;SDS011;6418;50.824;4.718;2022-08-25T03:17:33;13.40;;;8.23;;
12707;SDS011;6418;50.824;4.718;2022-08-25T03:20:01;13.60;;;8.30;;
12707;SDS011;6418;50.824;4.718;2022-08-25T03:22:29;14.27;;;8.67;;
12707;SDS011;6418;50.824;4.718;2022-08-25T03:24:57;12.10;;;8.00;;
12707;SDS011;6418;50.824;4.718;2022-08-25T03:27:44;15.10;;;6.93;;
12707;SDS011;6418;50.824;4.718;2022-08-25T03:30:10;13.43;;;7.83;;
12707;SDS011;6418;50.824;4.718;2022-08-25T03:32:38;12.27;;;7.47;;
12707;SDS011;6418;50.824;4.718;2022-08-25T03:35:07;14.50;;;7.90;;
12707;SDS011;6418;50.824;4.718;2022-08-25T03:37:34;14.53;;;8.20;;
12707;SDS011;6418;50.824;4.718;2022-08-25T03:40:02;13.60;;;7.80;;
12707;SDS011;6418;50.824;4.718;2022-08-25T03:42:30;13.43;;;7.97;;
12707;SDS011;6418;50.824;4.718;2022-08-25T03:44:57;13.13;;;7.33;;
12707;SDS011;6418;50.824;4.718;2022-08-25T03:47:24;14.37;;;7.67;;
12707;SDS011;6418;50.824;4.718;2022-08-25T03:49:53;11.83;;;7.20;;
12707;SDS011;6418;50.824;4.718;2022-08-25T03:52:21;11.30;;;6.60;;
12707;SDS011;6418;50.824;4.718;2022-08-25T03:54:48;13.03;;;7.20;;
12707;SDS011;6418;50.824;4.718;2022-08-25T03:57:15;12.60;;;7.23;;
12707;SDS011;6418;50.824;4.718;2022-08-25T03:59:44;12.23;;;6.90;;
12707;SDS011;6418;50.824;4.718;2022-08-25T04:02:11;11.43;;;7.27;;
12707;SDS011;6418;50.824;4.718;2022-08-25T04:04:38;12.80;;;7.00;;
12707;SDS011;6418;50.824;4.718;2022-08-25T04:07:05;10.93;;;6.60;;
12707;SDS011;6418;50.824;4.718;2022-08-25T04:09:34;12.60;;;6.80;;
12707;SDS011;6418;50.824;4.718;2022-08-25T04:12:01;12.23;;;6.17;;
12707;SDS011;6418;50.824;4.718;2022-08-25T04:14:28;11.40;;;6.70;;
12707;SDS011;6418;50.824;4.718;2022-08-25T04:16:55;11.73;;;6.27;;
12707;SDS011;6418;50.824;4.718;2022-08-25T04:19:22;11.50;;;6.37;;
12707;SDS011;6418;50.824;4.718;2022-08-25T04:21:49;13.13;;;6.40;;
12707;SDS011;6418;50.824;4.718;2022-08-25T04:24:17;11.90;;;6.03;;
12707;SDS011;6418;50.824;4.718;2022-08-25T04:26:47;11.60;;;6.20;;
12707;SDS011;6418;50.824;4.718;2022-08-25T04:29:17;11.50;;;6.20;;
12707;SDS011;6418;50.824;4.718;2022-08-25T04:31:45;11.37;;;6.27;;
12707;SDS011;6418;50.824;4.718;2022-08-25T04:34:14;12.53;;;6.40;;
12707;SDS011;6418;50.824;4.718;2022-08-25T04:36:41;10.90;;;6.10;;
12707;SDS011;6418;50.824;4.718;2022-08-25T04:39:08;11.43;;;5.77;;
12707;SDS011;6418;50.824;4.718;2022-08-25T04:41:35;18.57;;;6.13;;
12707;SDS011;6418;50.824;4.718;2022-08-25T04:44:03;12.07;;;6.33;;
12707;SDS011;6418;50.824;4.718;2022-08-25T04:46:32;10.73;;;6.00;;
12707;SDS011;6418;50.824;4.718;2022-08-25T04:49:00;9.33;;;5.90;;
12707;SDS011;6418;50.824;4.718;2022-08-25T04:51:29;11.77;;;6.00;;
12707;SDS011;6418;50.824;4.718;2022-08-25T04:53:58;13.37;;;6.03;;
12707;SDS011;6418;50.824;4.718;2022-08-25T04:56:26;11.10;;;6.00;;
12707;SDS011;6418;50.824;4.718;2022-08-25T04:58:54;11.00;;;6.10;;
12707;SDS011;6418;50.824;4.718;2022-08-25T05:01:23;10.47;;;5.63;;
12707;SDS011;6418;50.824;4.718;2022-08-25T05:03:53;12.87;;;6.43;;
12707;SDS011;6418;50.824;4.718;2022-08-25T05:06:23;10.63;;;6.10;;
12707;SDS011;6418;50.824;4.718;2022-08-25T05:08:50;11.97;;;6.10;;
12707;SDS011;6418;50.824;4.718;2022-08-25T05:11:18;13.20;;;6.17;;
12707;SDS011;6418;50.824;4.718;2022-08-25T05:13:46;11.93;;;5.90;;
12707;SDS011;6418;50.824;4.718;2022-08-25T05:16:15;11.63;;;6.00;;
12707;SDS011;6418;50.824;4.718;2022-08-25T05:18:43;9.53;;;5.90;;
12707;SDS011;6418;50.824;4.718;2022-08-25T05:21:11;13.83;;;6.73;;
12707;SDS011;6418;50.824;4.718;2022-08-25T05:23:40;10.37;;;6.07;;
12707;SDS011;6418;50.824;4.718;2022-08-25T05:26:09;11.50;;;6.17;;
12707;SDS011;6418;50.824;4.718;2022-08-25T05:28:37;11.33;;;6.40;;
12707;SDS011;6418;50.824;4.718;2022-08-25T05:31:06;12.83;;;6.47;;
12707;SDS011;6418;50.824;4.718;2022-08-25T05:33:34;9.00;;;5.77;;
12707;SDS011;6418;50.824;4.718;2022-08-25T05:36:04;15.67;;;6.03;;
12707;SDS011;6418;50.824;4.718;2022-08-25T05:38:32;14.23;;;6.30;;
12707;SDS011;6418;50.824;4.718;2022-08-25T05:41:00;14.43;;;6.20;;
12707;SDS011;6418;50.824;4.718;2022-08-25T05:43:29;11.63;;;6.30;;
12707;SDS011;6418;50.824;4.718;2022-08-25T05:45:56;12.73;;;6.23;;
12707;SDS011;6418;50.824;4.718;2022-08-25T05:48:23;11.30;;;5.80;;
12707;SDS011;6418;50.824;4.718;2022-08-25T05:50:52;11.27;;;6.10;;
12707;SDS011;6418;50.824;4.718;2022-08-25T05:53:22;11.20;;;6.17;;
12707;SDS011;6418;50.824;4.718;2022-08-25T05:55:50;10.30;;;5.87;;
12707;SDS011;6418;50.824;4.718;2022-08-25T05:58:18;12.50;;;6.13;;
12707;SDS011;6418;50.824;4.718;2022-08-25T06:00:46;14.83;;;6.40;;
12707;SDS011;6418;50.824;4.718;2022-08-25T06:03:13;12.20;;;6.10;;
12707;SDS011;6418;50.824;4.718;2022-08-25T06:05:39;11.57;;;6.37;;
12707;SDS011;6418;50.824;4.718;2022-08-25T06:08:06;13.80;;;6.03;;
12707;SDS011;6418;50.824;4.718;2022-08-25T06:10:35;12.10;;;6.10;;
12707;SDS011;6418;50.824;4.718;2022-08-25T06:13:02;10.47;;;5.87;;
12707;SDS011;6418;50.824;4.718;2022-08-25T06:15:30;11.03;;;6.40;;
12707;SDS011;6418;50.824;4.718;2022-08-25T06:17:57;10.93;;;5.70;;
12707;SDS011;6418;50.824;4.718;2022-08-25T06:20:26;12.00;;;6.07;;
12707;SDS011;6418;50.824;4.718;2022-08-25T06:22:54;9.87;;;5.37;;
12707;SDS011;6418;50.824;4.718;2022-08-25T06:25:22;11.53;;;5.40;;
12707;SDS011;6418;50.824;4.718;2022-08-25T06:27:52;12.50;;;5.53;;
12707;SDS011;6418;50.824;4.718;2022-08-25T06:30:20;9.00;;;5.00;;
12707;SDS011;6418;50.824;4.718;2022-08-25T06:32:48;10.32;;;5.18;;
12707;SDS011;6418;50.824;4.718;2022-08-25T06:35:16;11.23;;;5.10;;
12707;SDS011;6418;50.824;4.718;2022-08-25T06:37:44;9.68;;;5.07;;
12707;SDS011;6418;50.824;4.718;2022-08-25T06:40:12;12.70;;;4.70;;
12707;SDS011;6418;50.824;4.718;2022-08-25T06:42:40;7.63;;;4.78;;
12707;SDS011;6418;50.824;4.718;2022-08-25T06:45:09;9.15;;;4.72;;
12707;SDS011;6418;50.824;4.718;2022-08-25T06:47:36;8.77;;;4.78;;
12707;SDS011;6418;50.824;4.718;2022-08-25T06:50:03;10.38;;;4.80;;
12707;SDS011;6418;50.824;4.718;2022-08-25T06:52:30;6.80;;;4.47;;
12707;SDS011;6418;50.824;4.718;2022-08-25T06:54:58;9.45;;;4.80;;
12707;SDS011;6418;50.824;4.718;2022-08-25T06:57:25;8.50;;;4.97;;
12707;SDS011;6418;50.824;4.718;2022-08-25T06:59:52;9.88;;;4.90;;
12707;SDS011;6418;50.824;4.718;2022-08-25T07:02:20;12.52;;;5.00;;
12707;SDS011;6418;50.824;4.718;2022-08-25T07:04:47;13.27;;;5.15;;
12707;SDS011;6418;50.824;4.718;2022-08-25T07:07:14;12.15;;;5.05;;
12707;SDS011;6418;50.824;4.718;2022-08-25T07:09:41;12.93;;;4.88;;
12707;SDS011;6418;50.824;4.718;2022-08-25T07:12:08;10.73;;;5.00;;
12707;SDS011;6418;50.824;4.718;2022-08-25T07:14:35;13.43;;;5.20;;
12707;SDS011;6418;50.824;4.718;2022-08-25T07:17:02;9.25;;;4.80;;
12707;SDS011;6418;50.824;4.718;2022-08-25T07:19:30;8.13;;;4.60;;
12707;SDS011;6418;50.824;4.718;2022-08-25T07:21:57;10.75;;;4.57;;
12707;SDS011;6418;50.824;4.718;2022-08-25T07:24:24;18.67;;;5.60;;
12707;SDS011;6418;50.824;4.718;2022-08-25T07:26:51;9.43;;;4.60;;
12707;SDS011;6418;50.824;4.718;2022-08-25T07:29:19;10.60;;;4.85;;
12707;SDS011;6418;50.824;4.718;2022-08-25T07:31:47;14.95;;;4.95;;
12707;SDS011;6418;50.824;4.718;2022-08-25T07:34:14;8.90;;;4.60;;
12707;SDS011;6418;50.824;4.718;2022-08-25T07:37:00;8.13;;;4.40;;
12707;SDS011;6418;50.824;4.718;2022-08-25T07:39:29;11.50;;;4.78;;
12707;SDS011;6418;50.824;4.718;2022-08-25T07:41:56;11.88;;;4.60;;
12707;SDS011;6418;50.824;4.718;2022-08-25T07:44:24;9.65;;;4.22;;
12707;SDS011;6418;50.824;4.718;2022-08-25T07:46:52;11.13;;;4.80;;
12707;SDS011;6418;50.824;4.718;2022-08-25T07:49:19;11.70;;;4.47;;
12707;SDS011;6418;50.824;4.718;2022-08-25T07:51:47;10.23;;;4.57;;
12707;SDS011;6418;50.824;4.718;2022-08-25T07:54:15;9.55;;;4.65;;
12707;SDS011;6418;50.824;4.718;2022-08-25T07:56:42;8.10;;;4.35;;
12707;SDS011;6418;50.824;4.718;2022-08-25T07:59:09;8.10;;;4.38;;
12707;SDS011;6418;50.824;4.718;2022-08-25T08:01:36;8.15;;;4.35;;
12707;SDS011;6418;50.824;4.718;2022-08-25T08:04:03;9.68;;;4.55;;
12707;SDS011;6418;50.824;4.718;2022-08-25T08:06:30;9.80;;;4.60;;
12707;SDS011;6418;50.824;4.718;2022-08-25T08:08:58;7.88;;;4.28;;
12707;SDS011;6418;50.824;4.718;2022-08-25T08:11:28;8.43;;;4.28;;
12707;SDS011;6418;50.824;4.718;2022-08-25T08:13:57;9.95;;;4.53;;
12707;SDS011;6418;50.824;4.718;2022-08-25T08:16:25;11.98;;;4.22;;
12707;SDS011;6418;50.824;4.718;2022-08-25T08:18:53;8.48;;;4.30;;
12707;SDS011;6418;50.824;4.718;2022-08-25T08:21:21;9.85;;;4.63;;
12707;SDS011;6418;50.824;4.718;2022-08-25T08:23:50;7.72;;;4.07;;
12707;SDS011;6418;50.824;4.718;2022-08-25T08:26:18;9.20;;;4.30;;
12707;SDS011;6418;50.824;4.718;2022-08-25T08:28:47;8.10;;;4.20;;
12707;SDS011;6418;50.824;4.718;2022-08-25T08:31:15;8.48;;;4.07;;
12707;SDS011;6418;50.824;4.718;2022-08-25T08:33:43;10.43;;;4.40;;
12707;SDS011;6418;50.824;4.718;2022-08-25T08:36:10;9.63;;;4.30;;
12707;SDS011;6418;50.824;4.718;2022-08-25T08:38:38;9.52;;;4.25;;
12707;SDS011;6418;50.824;4.718;2022-08-25T08:41:10;12.70;;;4.50;;
12707;SDS011;6418;50.824;4.718;2022-08-25T08:44:18;10.77;;;4.30;;
12707;SDS011;6418;50.824;4.718;2022-08-25T08:46:54;6.95;;;3.90;;
12707;SDS011;6418;50.824;4.718;2022-08-25T08:49:30;10.05;;;4.30;;
12707;SDS011;6418;50.824;4.718;2022-08-25T08:52:03;12.02;;;4.50;;
12707;SDS011;6418;50.824;4.718;2022-08-25T08:54:34;9.15;;;4.22;;
12707;SDS011;6418;50.824;4.718;2022-08-25T08:57:06;13.25;;;4.50;;
12707;SDS011;6418;50.824;4.718;2022-08-25T08:59:42;9.30;;;4.20;;
12707;SDS011;6418;50.824;4.718;2022-08-25T09:02:17;6.50;;;4.18;;
12707;SDS011;6418;50.824;4.718;2022-08-25T09:04:52;9.23;;;3.95;;
12707;SDS011;6418;50.824;4.718;2022-08-25T09:07:24;8.68;;;4.05;;
12707;SDS011;6418;50.824;4.718;2022-08-25T09:09:55;9.43;;;4.10;;
12707;SDS011;6418;50.824;4.718;2022-08-25T09:12:25;10.10;;;4.07;;
12707;SDS011;6418;50.824;4.718;2022-08-25T09:15:09;7.00;;;3.95;;
12707;SDS011;6418;50.824;4.718;2022-08-25T09:17:49;8.30;;;4.10;;
12707;SDS011;6418;50.824;4.718;2022-08-25T09:20:39;11.55;;;4.20;;
12707;SDS011;6418;50.824;4.718;2022-08-25T09:23:17;8.70;;;3.78;;
12707;SDS011;6418;50.824;4.718;2022-08-25T09:25:53;9.25;;;4.10;;
12707;SDS011;6418;50.824;4.718;2022-08-25T09:28:27;8.48;;;4.10;;
12707;SDS011;6418;50.824;4.718;2022-08-25T09:30:59;8.80;;;4.03;;
12707;SDS011;6418;50.824;4.718;2022-08-25T09:33:29;7.20;;;3.83;;
12707;SDS011;6418;50.824;4.718;2022-08-25T09:35:58;7.88;;;3.90;;
12707;SDS011;6418;50.824;4.718;2022-08-25T09:38:28;8.93;;;4.00;;
12707;SDS011;6418;50.824;4.718;2022-08-25T09:40:57;8.25;;;3.70;;
12707;SDS011;6418;50.824;4.718;2022-08-25T09:43:28;7.65;;;3.75;;
12707;SDS011;6418;50.824;4.718;2022-08-25T09:45:59;7.88;;;3.78;;
12707;SDS011;6418;50.824;4.718;2022-08-25T09:48:27;7.97;;;3.67;;
12707;SDS011;6418;50.824;4.718;2022-08-25T09:51:08;9.40;;;3.95;;
12707;SDS011;6418;50.824;4.718;2022-08-25T09:53:42;6.18;;;3.88;;
12707;SDS011;6418;50.824;4.718;2022-08-25T09:56:16;8.05;;;3.60;;
12707;SDS011;6418;50.824;4.718;2022-08-25T09:58:46;8.32;;;3.80;;
12707;SDS011;6418;50.824;4.718;2022-08-25T10:01:15;4.72;;;3.47;;
12707;SDS011;6418;50.824;4.718;2022-08-25T10:03:55;7.93;;;3.47;;
12707;SDS011;6418;50.824;4.718;2022-08-25T10:06:27;9.75;;;4.00;;
12707;SDS011;6418;50.824;4.718;2022-08-25T10:09:00;9.20;;;3.75;;
12707;SDS011;6418;50.824;4.718;2022-08-25T10:11:35;8.48;;;3.85;;
12707;SDS011;6418;50.824;4.718;2022-08-25T10:14:10;10.05;;;3.90;;
12707;SDS011;6418;50.824;4.718;2022-08-25T10:16:44;11.38;;;4.07;;
12707;SDS011;6418;50.824;4.718;2022-08-25T10:19:13;7.70;;;4.10;;
12707;SDS011;6418;50.824;4.718;2022-08-25T10:22:00;6.43;;;3.63;;
12707;SDS011;6418;50.824;4.718;2022-08-25T10:24:29;6.07;;;3.67;;
12707;SDS011;6418;50.824;4.718;2022-08-25T10:26:57;8.63;;;3.85;;
12707;SDS011;6418;50.824;4.718;2022-08-25T10:29:36;10.82;;;3.70;;
12707;SDS011;6418;50.824;4.718;2022-08-25T10:32:17;7.30;;;3.88;;
12707;SDS011;6418;50.824;4.718;2022-08-25T10:34:53;9.43;;;3.78;;
12707;SDS011;6418;50.824;4.718;2022-08-25T10:37:24;6.30;;;3.67;;
12707;SDS011;6418;50.824;4.718;2022-08-25T10:40:01;5.63;;;3.22;;
12707;SDS011;6418;50.824;4.718;2022-08-25T10:42:41;9.13;;;4.00;;
12707;SDS011;6418;50.824;4.718;2022-08-25T10:45:15;4.13;;;3.58;;
12707;SDS011;6418;50.824;4.718;2022-08-25T10:51:03;9.77;;;3.92;;
12707;SDS011;6418;50.824;4.718;2022-08-25T10:53:39;6.97;;;3.42;;
12707;SDS011;6418;50.824;4.718;2022-08-25T10:56:13;7.65;;;3.42;;
12707;SDS011;6418;50.824;4.718;2022-08-25T10:58:48;10.18;;;3.70;;
12707;SDS011;6418;50.824;4.718;2022-08-25T11:01:27;8.10;;;3.83;;
12707;SDS011;6418;50.824;4.718;2022-08-25T11:04:05;7.70;;;3.65;;
12707;SDS011;6418;50.824;4.718;2022-08-25T11:06:38;8.13;;;4.00;;
12707;SDS011;6418;50.824;4.718;2022-08-25T11:09:10;6.32;;;3.85;;
12707;SDS011;6418;50.824;4.718;2022-08-25T11:11:44;7.05;;;3.90;;
12707;SDS011;6418;50.824;4.718;2022-08-25T11:14:16;6.70;;;3.70;;
12707;SDS011;6418;50.824;4.718;2022-08-25T11:16:47;9.55;;;3.80;;
12707;SDS011;6418;50.824;4.718;2022-08-25T11:19:21;8.20;;;3.65;;
12707;SDS011;6418;50.824;4.718;2022-08-25T11:21:52;7.57;;;3.90;;
12707;SDS011;6418;50.824;4.718;2022-08-25T11:24:46;5.57;;;3.65;;
12707;SDS011;6418;50.824;4.718;2022-08-25T11:27:27;5.30;;;3.60;;
12707;SDS011;6418;50.824;4.718;2022-08-25T11:30:01;5.82;;;3.70;;
12707;SDS011;6418;50.824;4.718;2022-08-25T11:32:31;5.60;;;3.78;;
12707;SDS011;6418;50.824;4.718;2022-08-25T11:35:01;7.50;;;3.83;;
12707;SDS011;6418;50.824;4.718;2022-08-25T11:37:31;6.57;;;3.70;;
12707;SDS011;6418;50.824;4.718;2022-08-25T11:43:13;8.65;;;3.90;;
12707;SDS011;6418;50.824;4.718;2022-08-25T11:46:04;6.03;;;3.70;;
12707;SDS011;6418;50.824;4.718;2022-08-25T11:48:43;7.90;;;3.90;;
12707;SDS011;6418;50.824;4.718;2022-08-25T11:51:30;5.68;;;3.60;;
12707;SDS011;6418;50.824;4.718;2022-08-25T11:54:14;5.22;;;3.90;;
12707;SDS011;6418;50.824;4.718;2022-08-25T11:56:49;8.13;;;3.92;;
12707;SDS011;6418;50.824;4.718;2022-08-25T12:02:28;5.82;;;3.72;;
12707;SDS011;6418;50.824;4.718;2022-08-25T12:04:57;6.28;;;3.75;;
12707;SDS011;6418;50.824;4.718;2022-08-25T12:07:31;5.00;;;3.60;;
12707;SDS011;6418;50.824;4.718;2022-08-25T12:10:52;7.45;;;3.88;;
12707;SDS011;6418;50.824;4.718;2022-08-25T12:21:51;8.50;;;3.90;;
12707;SDS011;6418;50.824;4.718;2022-08-25T12:24:21;8.82;;;4.03;;
12707;SDS011;6418;50.824;4.718;2022-08-25T12:27:10;13.65;;;4.18;;
12707;SDS011;6418;50.824;4.718;2022-08-25T12:29:48;5.95;;;3.65;;
12707;SDS011;6418;50.824;4.718;2022-08-25T12:32:28;9.95;;;4.00;;
12707;SDS011;6418;50.824;4.718;2022-08-25T12:35:21;10.32;;;4.00;;
12707;SDS011;6418;50.824;4.718;2022-08-25T12:38:01;7.10;;;3.55;;
12707;SDS011;6418;50.824;4.718;2022-08-25T12:40:32;7.38;;;3.80;;
12707;SDS011;6418;50.824;4.718;2022-08-25T12:43:04;5.13;;;3.42;;
12707;SDS011;6418;50.824;4.718;2022-08-25T12:45:39;6.88;;;3.60;;
12707;SDS011;6418;50.824;4.718;2022-08-25T12:51:24;6.47;;;3.85;;
12707;SDS011;6418;50.824;4.718;2022-08-25T12:53:52;8.10;;;3.83;;
12707;SDS011;6418;50.824;4.718;2022-08-25T12:56:27;7.88;;;4.00;;
12707;SDS011;6418;50.824;4.718;2022-08-25T12:59:06;7.47;;;3.70;;
12707;SDS011;6418;50.824;4.718;2022-08-25T13:01:47;6.78;;;3.53;;
12707;SDS011;6418;50.824;4.718;2022-08-25T13:04:32;9.35;;;3.90;;
12707;SDS011;6418;50.824;4.718;2022-08-25T13:07:22;7.60;;;3.60;;
12707;SDS011;6418;50.824;4.718;2022-08-25T13:10:02;5.97;;;3.53;;
12707;SDS011;6418;50.824;4.718;2022-08-25T13:12:44;7.75;;;3.80;;
12707;SDS011;6418;50.824;4.718;2022-08-25T13:15:24;7.82;;;3.60;;
12707;SDS011;6418;50.824;4.718;2022-08-25T13:17:54;9.07;;;3.65;;
12707;SDS011;6418;50.824;4.718;2022-08-25T13:20:22;7.95;;;3.80;;
12707;SDS011;6418;50.824;4.718;2022-08-25T13:22:52;10.65;;;3.80;;
12707;SDS011;6418;50.824;4.718;2022-08-25T13:25:25;8.10;;;3.60;;
12707;SDS011;6418;50.824;4.718;2022-08-25T13:27:56;6.53;;;3.67;;
12707;SDS011;6418;50.824;4.718;2022-08-25T13:30:26;5.57;;;3.72;;
12707;SDS011;6418;50.824;4.718;2022-08-25T13:32:55;6.05;;;3.63;;
12707;SDS011;6418;50.824;4.718;2022-08-25T13:35:24;7.60;;;3.92;;
12707;SDS011;6418;50.824;4.718;2022-08-25T13:37:53;8.18;;;3.75;;
12707;SDS011;6418;50.824;4.718;2022-08-25T13:40:35;7.07;;;3.80;;
12707;SDS011;6418;50.824;4.718;2022-08-25T13:43:05;6.82;;;3.70;;
12707;SDS011;6418;50.824;4.718;2022-08-25T13:45:36;8.82;;;3.80;;
12707;SDS011;6418;50.824;4.718;2022-08-25T13:48:05;7.40;;;3.72;;
12707;SDS011;6418;50.824;4.718;2022-08-25T13:50:32;5.00;;;3.45;;
12707;SDS011;6418;50.824;4.718;2022-08-25T13:53:02;5.07;;;3.50;;
12707;SDS011;6418;50.824;4.718;2022-08-25T13:55:32;7.53;;;3.60;;
12707;SDS011;6418;50.824;4.718;2022-08-25T13:58:01;9.05;;;3.80;;
12707;SDS011;6418;50.824;4.718;2022-08-25T14:00:32;8.75;;;3.45;;
12707;SDS011;6418;50.824;4.718;2022-08-25T14:03:03;8.05;;;3.70;;
12707;SDS011;6418;50.824;4.718;2022-08-25T14:05:37;6.75;;;3.85;;
12707;SDS011;6418;50.824;4.718;2022-08-25T14:08:06;7.07;;;3.50;;
12707;SDS011;6418;50.824;4.718;2022-08-25T14:11:01;6.75;;;3.83;;
12707;SDS011;6418;50.824;4.718;2022-08-25T14:13:33;4.05;;;3.30;;
12707;SDS011;6418;50.824;4.718;2022-08-25T14:16:05;8.52;;;3.65;;
12707;SDS011;6418;50.824;4.718;2022-08-25T14:18:33;8.90;;;4.03;;
12707;SDS011;6418;50.824;4.718;2022-08-25T14:21:01;8.15;;;3.50;;
12707;SDS011;6418;50.824;4.718;2022-08-25T14:23:34;7.90;;;3.70;;
12707;SDS011;6418;50.824;4.718;2022-08-25T14:26:02;7.78;;;3.78;;
12707;SDS011;6418;50.824;4.718;2022-08-25T14:28:29;7.85;;;3.78;;
12707;SDS011;6418;50.824;4.718;2022-08-25T14:31:00;9.93;;;3.78;;
12707;SDS011;6418;50.824;4.718;2022-08-25T14:33:32;5.82;;;3.47;;
12707;SDS011;6418;50.824;4.718;2022-08-25T14:36:02;10.80;;;3.70;;
12707;SDS011;6418;50.824;4.718;2022-08-25T14:38:30;8.98;;;3.78;;
12707;SDS011;6418;50.824;4.718;2022-08-25T14:40:57;5.32;;;3.38;;
12707;SDS011;6418;50.824;4.718;2022-08-25T14:43:24;7.47;;;3.80;;
12707;SDS011;6418;50.824;4.718;2022-08-25T14:45:51;9.48;;;3.80;;
12707;SDS011;6418;50.824;4.718;2022-08-25T14:48:23;7.07;;;3.90;;
12707;SDS011;6418;50.824;4.718;2022-08-25T14:50:51;6.68;;;3.40;;
12707;SDS011;6418;50.824;4.718;2022-08-25T14:53:20;6.03;;;3.50;;
12707;SDS011;6418;50.824;4.718;2022-08-25T14:55:46;8.95;;;3.78;;
12707;SDS011;6418;50.824;4.718;2022-08-25T14:58:17;10.30;;;3.67;;
12707;SDS011;6418;50.824;4.718;2022-08-25T15:00:44;5.95;;;3.58;;
12707;SDS011;6418;50.824;4.718;2022-08-25T15:03:13;6.78;;;3.50;;
12707;SDS011;6418;50.824;4.718;2022-08-25T15:05:44;6.68;;;3.40;;
12707;SDS011;6418;50.824;4.718;2022-08-25T15:08:11;6.15;;;3.60;;
12707;SDS011;6418;50.824;4.718;2022-08-25T15:10:55;6.70;;;3.45;;
12707;SDS011;6418;50.824;4.718;2022-08-25T15:13:23;5.53;;;3.63;;
12707;SDS011;6418;50.824;4.718;2022-08-25T15:15:51;6.88;;;3.70;;
12707;SDS011;6418;50.824;4.718;2022-08-25T15:18:19;9.60;;;4.40;;
12707;SDS011;6418;50.824;4.718;2022-08-25T15:20:48;11.60;;;4.20;;
12707;SDS011;6418;50.824;4.718;2022-08-25T15:23:15;14.23;;;4.53;;
12707;SDS011;6418;50.824;4.718;2022-08-25T15:25:42;11.80;;;4.38;;
12707;SDS011;6418;50.824;4.718;2022-08-25T15:28:10;8.32;;;4.50;;
12707;SDS011;6418;50.824;4.718;2022-08-25T15:30:38;12.57;;;4.60;;
12707;SDS011;6418;50.824;4.718;2022-08-25T15:33:06;8.57;;;4.50;;
12707;SDS011;6418;50.824;4.718;2022-08-25T15:35:33;14.40;;;4.55;;
12707;SDS011;6418;50.824;4.718;2022-08-25T15:38:02;11.60;;;4.68;;